createdAt,value
2022-08-18T00:02:07.625Z,16.48
2022-08-18T00:04:45.251Z,16.48
2022-08-18T00:07:26.539Z,16.44
2022-08-18T00:09:53.655Z,16.45
2022-08-18T00:12:24.498Z,16.44
2022-08-18T00:14:53.016Z,16.44
2022-08-18T00:17:21.628Z,16.45
2022-08-18T00:19:48.838Z,16.44
2022-08-18T00:22:21.007Z,16.42
2022-08-18T00:24:52.591Z,16.42
2022-08-18T00:27:30.459Z,16.38
2022-08-18T00:30:01.354Z,16.39
2022-08-18T00:32:43.048Z,16.36
2022-08-18T00:35:14.021Z,16.39
2022-08-18T00:37:42.423Z,16.37
2022-08-18T00:40:14.662Z,16.34
2022-08-18T00:42:52.838Z,16.32
2022-08-18T00:45:26.292Z,16.30
2022-08-18T00:47:54.008Z,16.26
2022-08-18T00:50:34.248Z,16.23
2022-08-18T00:53:20.504Z,16.20
2022-08-18T00:55:53.782Z,16.20
2022-08-18T00:58:30.987Z,16.19
2022-08-18T01:01:01.146Z,16.16
2022-08-18T01:03:29.116Z,16.15
2022-08-18T01:06:28.395Z,16.14
2022-08-18T01:08:56.194Z,16.10
2022-08-18T01:11:23.472Z,16.08
2022-08-18T01:13:51.095Z,16.09
2022-08-18T01:16:37.632Z,16.06
2022-08-18T01:19:23.408Z,16.03
2022-08-18T01:22:04.587Z,16.00
2022-08-18T01:24:54.493Z,16.01
2022-08-18T01:27:21.919Z,16.00
2022-08-18T01:29:50.477Z,15.99
2022-08-18T01:32:23.722Z,15.98
2022-08-18T01:34:52.708Z,16.01
2022-08-18T01:37:23.805Z,16.03
2022-08-18T01:41:27.544Z,16.05
2022-08-18T01:42:39.093Z,16.05
2022-08-18T01:45:08.697Z,16.05
2022-08-18T01:47:47.480Z,16.04
2022-08-18T01:50:23.850Z,16.04
2022-08-18T01:52:53.594Z,16.03
2022-08-18T01:55:21.516Z,16.05
2022-08-18T01:57:48.827Z,16.03
2022-08-18T02:00:19.074Z,16.05
2022-08-18T02:02:47.259Z,16.02
2022-08-18T02:05:43.075Z,16.03
2022-08-18T02:08:12.564Z,16.03
2022-08-18T02:10:40.383Z,16.01
2022-08-18T02:13:07.392Z,15.98
2022-08-18T02:15:34.985Z,16.02
2022-08-18T02:18:02.344Z,15.98
2022-08-18T02:20:29.361Z,15.98
2022-08-18T02:22:58.708Z,15.96
2022-08-18T02:25:25.602Z,15.94
2022-08-18T02:27:52.603Z,15.94
2022-08-18T02:30:20.853Z,15.93
2022-08-18T02:32:47.789Z,15.95
2022-08-18T02:35:14.844Z,15.94
2022-08-18T02:37:43.554Z,15.91
2022-08-18T02:40:14.912Z,15.95
2022-08-18T02:42:43.830Z,15.96
2022-08-18T02:45:12.952Z,15.94
2022-08-18T02:47:40.885Z,15.96
2022-08-18T02:50:10.963Z,15.95
2022-08-18T02:52:38.418Z,15.98
2022-08-18T02:55:08.765Z,16.00
2022-08-18T02:57:35.801Z,15.96
2022-08-18T03:00:03.017Z,15.96
2022-08-18T03:02:32.101Z,15.94
2022-08-18T03:04:58.943Z,15.88
2022-08-18T03:07:25.750Z,15.89
2022-08-18T03:09:52.564Z,15.90
2022-08-18T03:12:19.438Z,15.88
2022-08-18T03:14:46.926Z,15.87
2022-08-18T03:17:15.149Z,15.87
2022-08-18T03:19:47.909Z,15.84
2022-08-18T03:22:27.472Z,15.87
2022-08-18T03:24:57.200Z,15.86
2022-08-18T03:27:24.643Z,15.88
2022-08-18T03:29:51.571Z,15.89
2022-08-18T03:32:18.969Z,15.89
2022-08-18T03:34:46.007Z,15.92
2022-08-18T03:37:16.385Z,15.90
2022-08-18T03:39:43.402Z,15.88
2022-08-18T03:42:10.542Z,15.85
2022-08-18T03:44:37.786Z,15.89
2022-08-18T03:47:10.129Z,15.86
2022-08-18T03:49:37.954Z,15.85
2022-08-18T03:52:09.926Z,15.82
2022-08-18T03:54:39.083Z,15.80
2022-08-18T03:57:09.549Z,15.83
2022-08-18T03:59:36.913Z,15.78
2022-08-18T04:02:05.756Z,15.78
2022-08-18T04:04:33.020Z,15.81
2022-08-18T04:07:10.018Z,15.82
2022-08-18T04:09:39.125Z,15.84
2022-08-18T04:12:16.673Z,15.82
2022-08-18T04:14:49.209Z,15.85
2022-08-18T04:17:27.472Z,15.83
2022-08-18T04:19:56.371Z,15.87
2022-08-18T04:22:25.192Z,15.86
2022-08-18T04:24:53.548Z,15.90
2022-08-18T04:27:22.700Z,15.88
2022-08-18T04:29:50.264Z,15.88
2022-08-18T04:32:17.418Z,15.90
2022-08-18T04:34:44.729Z,15.93
2022-08-18T04:37:14.061Z,15.93
2022-08-18T04:39:41.310Z,15.93
2022-08-18T04:42:08.701Z,15.94
2022-08-18T04:44:38.058Z,15.94
2022-08-18T04:47:07.736Z,15.95
2022-08-18T04:49:35.398Z,15.91
2022-08-18T04:52:40.849Z,15.91
2022-08-18T04:55:08.880Z,15.93
2022-08-18T04:57:36.029Z,15.89
2022-08-18T05:00:07.136Z,15.91
2022-08-18T05:02:34.090Z,15.91
2022-08-18T05:05:03.370Z,15.94
2022-08-18T05:07:30.603Z,15.95
2022-08-18T05:09:57.685Z,15.93
2022-08-18T05:12:26.323Z,15.93
2022-08-18T05:14:57.123Z,15.96
2022-08-18T05:17:30.543Z,15.95
2022-08-18T05:20:00.379Z,15.97
2022-08-18T05:22:31.143Z,15.97
2022-08-18T05:24:58.589Z,15.99
2022-08-18T05:27:25.434Z,15.96
2022-08-18T05:29:52.466Z,15.96
2022-08-18T05:32:38.334Z,15.98
2022-08-18T05:35:12.393Z,15.96
2022-08-18T05:37:59.933Z,15.95
2022-08-18T05:40:27.116Z,15.99
2022-08-18T05:42:57.575Z,16.00
2022-08-18T05:45:25.031Z,16.03
2022-08-18T05:47:52.106Z,16.01
2022-08-18T05:50:21.191Z,16.02
2022-08-18T05:53:00.158Z,16.03
2022-08-18T05:55:57.463Z,16.01
2022-08-18T05:58:34.469Z,16.05
2022-08-18T06:01:12.094Z,16.04
2022-08-18T06:04:06.742Z,16.09
2022-08-18T06:06:36.685Z,16.12
2022-08-18T06:09:26.086Z,16.10
2022-08-18T06:12:09.230Z,16.12
2022-08-18T06:14:39.249Z,16.14
2022-08-18T06:17:46.930Z,16.12
2022-08-18T06:20:31.029Z,16.20
2022-08-18T06:23:28.191Z,16.20
2022-08-18T06:26:10.727Z,16.22
2022-08-18T06:29:25.229Z,16.22
2022-08-18T06:32:06.085Z,16.23
2022-08-18T06:35:10.364Z,16.17
2022-08-18T06:38:36.570Z,16.23
2022-08-18T06:41:41.888Z,16.30
2022-08-18T06:44:31.547Z,16.34
2022-08-18T06:47:11.565Z,16.39
2022-08-18T06:49:46.798Z,16.42
2022-08-18T06:52:23.786Z,16.33
2022-08-18T06:54:54.268Z,16.42
2022-08-18T06:57:57.987Z,16.43
2022-08-18T07:00:32.670Z,16.41
2022-08-18T07:03:13.685Z,16.45
2022-08-18T07:06:02.565Z,16.44
2022-08-18T07:08:38.654Z,16.46
2022-08-18T07:11:29.649Z,16.53
2022-08-18T07:14:22.586Z,16.58
2022-08-18T07:16:59.258Z,16.62
2022-08-18T07:19:31.331Z,16.66
2022-08-18T07:22:05.818Z,16.69
2022-08-18T07:24:40.777Z,16.71
2022-08-18T07:27:17.777Z,16.72
2022-08-18T07:30:15.691Z,16.77
2022-08-18T07:32:52.097Z,16.76
2022-08-18T07:35:25.195Z,16.82
2022-08-18T07:38:13.841Z,16.81
2022-08-18T07:40:59.397Z,16.84
2022-08-18T07:44:17.209Z,16.88
2022-08-18T07:46:56.361Z,16.92
2022-08-18T07:49:28.259Z,16.99
2022-08-18T07:52:04.016Z,17.02
2022-08-18T07:54:50.460Z,17.05
2022-08-18T07:57:50.498Z,17.08
2022-08-18T08:00:47.728Z,17.20
2022-08-18T08:03:48.239Z,17.24
2022-08-18T08:06:47.709Z,17.39
2022-08-18T08:09:39.738Z,17.46
2022-08-18T08:12:32.797Z,17.56
2022-08-18T08:15:42.898Z,17.62
2022-08-18T08:18:44.455Z,17.57
2022-08-18T08:21:18.593Z,17.68
2022-08-18T08:23:56.306Z,17.70
2022-08-18T08:26:32.332Z,17.76
2022-08-18T08:29:38.599Z,17.80
2022-08-18T08:32:34.512Z,17.84
2022-08-18T08:35:49.879Z,17.90
2022-08-18T08:38:43.141Z,18.03
2022-08-18T08:41:33.497Z,18.21
2022-08-18T08:44:16.882Z,18.30
2022-08-18T08:46:55.649Z,18.49
2022-08-18T08:50:02.551Z,18.67
2022-08-18T08:52:44.949Z,18.96
2022-08-18T08:55:25.805Z,19.21
2022-08-18T08:58:09.811Z,19.49
2022-08-18T09:00:40.983Z,19.76
2022-08-18T09:03:30.077Z,20.11
2022-08-18T09:06:00.594Z,20.32
2022-08-18T09:08:49.185Z,20.38
2022-08-18T09:12:07.534Z,20.55
2022-08-18T09:15:26.518Z,20.88
2022-08-18T09:18:30.129Z,21.37
2022-08-18T09:21:22.199Z,21.76
2022-08-18T09:23:55.011Z,22.06
2022-08-18T09:26:40.064Z,22.25
2022-08-18T09:29:23.735Z,22.29
2022-08-18T09:32:18.703Z,22.29
2022-08-18T09:35:45.924Z,22.21
2022-08-18T09:38:45.635Z,22.00
2022-08-18T09:41:34.232Z,21.80
2022-08-18T09:44:21.333Z,21.73
2022-08-18T09:46:56.180Z,21.65
2022-08-18T09:49:27.329Z,21.58
2022-08-18T09:52:24.468Z,21.49
2022-08-18T09:54:59.408Z,21.50
2022-08-18T09:57:31.258Z,21.51
2022-08-18T10:00:12.629Z,21.46
2022-08-18T10:02:40.456Z,21.39
2022-08-18T10:05:17.201Z,21.36
2022-08-18T10:08:25.649Z,21.24
2022-08-18T10:11:16.663Z,21.17
2022-08-18T10:14:31.323Z,21.19
2022-08-18T10:17:35.680Z,21.33
2022-08-18T10:20:34.437Z,21.48
2022-08-18T10:23:02.008Z,21.55
2022-08-18T10:25:47.526Z,21.63
2022-08-18T10:28:51.986Z,21.70
2022-08-18T10:31:19.090Z,21.85
2022-08-18T10:34:19.123Z,21.94
2022-08-18T10:37:02.052Z,22.09
2022-08-18T10:39:41.216Z,22.18
2022-08-18T10:42:33.981Z,22.21
2022-08-18T10:45:32.315Z,22.30
2022-08-18T10:48:30.572Z,22.32
2022-08-18T10:51:12.330Z,22.30
2022-08-18T10:53:51.556Z,22.22
2022-08-18T10:56:48.589Z,22.16
2022-08-18T11:06:17.829Z,21.59
2022-08-18T11:08:55.181Z,21.54
2022-08-18T11:15:22.604Z,21.49
2022-08-18T11:18:10.766Z,21.58
2022-08-18T11:20:40.310Z,21.63
2022-08-18T11:23:17.424Z,21.66
2022-08-18T11:25:45.161Z,21.67
2022-08-18T11:31:06.557Z,21.53
2022-08-18T11:33:33.605Z,21.41
2022-08-18T11:36:05.172Z,21.45
2022-08-18T11:38:34.674Z,21.46
2022-08-18T11:41:23.484Z,21.53
2022-08-18T11:43:59.901Z,21.74
2022-08-18T11:46:38.969Z,21.91
2022-08-18T11:49:30.210Z,22.07
2022-08-18T11:52:29.618Z,22.07
2022-08-18T11:55:14.427Z,22.18
2022-08-18T11:57:59.203Z,22.33
2022-08-18T12:00:47.686Z,22.51
2022-08-18T12:03:31.119Z,22.58
2022-08-18T12:06:19.305Z,22.54
2022-08-18T12:09:05.175Z,22.58
2022-08-18T12:11:37.076Z,22.53
2022-08-18T12:14:30.774Z,22.53
2022-08-18T12:19:47.601Z,22.65
2022-08-18T12:22:22.891Z,22.79
2022-08-18T12:24:51.099Z,22.98
2022-08-18T12:27:22.465Z,23.11
2022-08-18T12:29:52.987Z,23.20
2022-08-18T12:35:11.840Z,23.23
2022-08-18T12:38:11.214Z,23.21
2022-08-18T12:43:20.070Z,23.48
2022-08-18T12:45:47.875Z,23.61
2022-08-18T12:48:15.168Z,23.71
2022-08-18T12:50:54.628Z,23.90
2022-08-18T12:53:30.048Z,24.01
2022-08-18T12:56:17.623Z,24.10
2022-08-18T12:58:47.563Z,24.18
2022-08-18T13:01:17.716Z,24.31
2022-08-18T13:03:52.706Z,24.28
2022-08-18T13:06:40.753Z,24.28
2022-08-18T13:09:16.584Z,24.25
2022-08-18T13:11:55.968Z,24.19
2022-08-18T13:14:27.234Z,24.22
2022-08-18T13:16:55.252Z,24.27
2022-08-18T13:19:22.346Z,24.36
2022-08-18T13:21:49.713Z,24.40
2022-08-18T13:24:21.242Z,24.42
2022-08-18T13:26:50.256Z,24.44
2022-08-18T13:29:19.638Z,24.44
2022-08-18T13:31:50.426Z,24.51
2022-08-18T13:34:22.497Z,24.43
2022-08-18T13:36:51.173Z,24.61
2022-08-18T13:39:24.237Z,24.69
2022-08-18T13:41:54.153Z,24.77
2022-08-18T13:44:22.714Z,24.94
2022-08-18T13:46:56.041Z,24.85
2022-08-18T13:49:30.315Z,24.92
2022-08-18T13:52:00.976Z,24.86
2022-08-18T13:54:34.064Z,24.88
2022-08-18T13:57:05.076Z,24.89
2022-08-18T13:59:34.255Z,24.81
2022-08-18T14:02:08.662Z,24.79
2022-08-18T14:04:38.127Z,24.66
2022-08-18T14:07:10.954Z,24.45
2022-08-18T14:09:39.365Z,24.34
2022-08-18T14:12:28.343Z,24.25
2022-08-18T14:14:59.693Z,24.11
2022-08-18T14:17:27.251Z,23.96
2022-08-18T14:20:15.546Z,23.86
2022-08-18T14:23:11.055Z,23.66
2022-08-18T14:25:57.234Z,23.41
2022-08-18T14:28:28.359Z,23.44
2022-08-18T14:30:57.789Z,23.52
2022-08-18T14:33:49.675Z,23.57
2022-08-18T14:36:17.414Z,23.64
2022-08-18T14:38:45.524Z,23.74
2022-08-18T14:41:14.780Z,23.82
2022-08-18T14:43:55.647Z,23.97
2022-08-18T14:46:32.814Z,23.98
2022-08-18T14:49:04.139Z,23.98
2022-08-18T14:51:33.647Z,24.03
2022-08-18T14:54:02.145Z,24.00
2022-08-18T14:56:29.772Z,24.00
2022-08-18T14:59:00.160Z,24.03
2022-08-18T15:01:27.546Z,23.91
2022-08-18T15:03:55.023Z,23.89
2022-08-18T15:06:22.961Z,23.71
2022-08-18T15:08:54.414Z,23.66
2022-08-18T15:11:24.577Z,23.63
2022-08-18T15:13:55.091Z,23.51
2022-08-18T15:16:26.956Z,23.43
2022-08-18T15:18:59.315Z,23.40
2022-08-18T15:21:47.142Z,23.42
2022-08-18T15:24:39.660Z,23.42
2022-08-18T15:27:13.266Z,23.43
2022-08-18T15:29:46.484Z,23.49
2022-08-18T15:32:17.572Z,23.49
2022-08-18T15:34:47.278Z,23.48
2022-08-18T15:37:22.141Z,23.49
2022-08-18T15:40:03.050Z,23.41
2022-08-18T15:42:30.056Z,23.45
2022-08-18T15:45:11.590Z,23.49
2022-08-18T15:47:41.584Z,23.43
2022-08-18T15:50:21.955Z,23.49
2022-08-18T15:53:01.104Z,23.39
2022-08-18T15:55:35.715Z,23.26
2022-08-18T15:58:03.449Z,23.12
2022-08-18T16:00:42.672Z,23.02
2022-08-18T16:03:14.579Z,23.00
2022-08-18T16:05:52.776Z,22.83
2022-08-18T16:08:23.714Z,22.83
2022-08-18T16:10:52.467Z,22.60
2022-08-18T16:13:20.122Z,22.67
2022-08-18T16:15:50.418Z,22.64
2022-08-18T16:18:21.245Z,22.45
2022-08-18T16:20:50.683Z,22.47
2022-08-18T16:23:19.772Z,22.45
2022-08-18T16:25:46.711Z,22.38
2022-08-18T16:28:13.664Z,22.38
2022-08-18T16:30:41.499Z,22.36
2022-08-18T16:33:08.835Z,22.34
2022-08-18T16:35:37.553Z,22.26
2022-08-18T16:38:08.789Z,22.31
2022-08-18T16:40:37.180Z,22.28
2022-08-18T16:43:06.076Z,22.20
2022-08-18T16:45:36.232Z,22.26
2022-08-18T16:48:04.156Z,22.17
2022-08-18T16:50:31.148Z,22.09
2022-08-18T16:52:58.556Z,22.08
2022-08-18T16:55:25.583Z,22.13
2022-08-18T16:58:15.275Z,22.11
2022-08-18T17:01:01.809Z,22.10
2022-08-18T17:03:47.401Z,22.14
2022-08-18T17:06:18.633Z,22.12
2022-08-18T17:08:46.463Z,22.13
2022-08-18T17:11:19.157Z,22.09
2022-08-18T17:13:48.903Z,22.10
2022-08-18T17:16:17.694Z,22.09
2022-08-18T17:18:45.305Z,22.08
2022-08-18T17:21:17.245Z,22.05
2022-08-18T17:23:46.024Z,21.92
2022-08-18T17:26:27.164Z,21.80
2022-08-18T17:29:35.962Z,21.72
2022-08-18T17:32:10.895Z,21.67
2022-08-18T17:34:43.176Z,21.54
2022-08-18T17:37:14.821Z,21.53
2022-08-18T17:40:12.736Z,21.50
2022-08-18T17:42:40.603Z,21.48
2022-08-18T17:45:11.749Z,21.53
2022-08-18T17:48:00.187Z,21.47
2022-08-18T17:51:05.148Z,21.50
2022-08-18T17:53:36.385Z,21.54
2022-08-18T17:56:22.255Z,21.50
2022-08-18T17:58:56.731Z,21.48
2022-08-18T18:01:26.241Z,21.43
2022-08-18T18:03:54.062Z,21.46
2022-08-18T18:06:31.768Z,21.48
2022-08-18T18:09:09.187Z,21.43
2022-08-18T18:11:47.325Z,21.33
2022-08-18T18:14:44.073Z,21.28
2022-08-18T18:17:32.586Z,21.20
2022-08-18T18:20:32.956Z,21.15
2022-08-18T18:23:22.632Z,21.14
2022-08-18T18:25:50.794Z,21.11
2022-08-18T18:28:36.167Z,21.04
2022-08-18T18:31:28.073Z,20.94
2022-08-18T18:34:23.460Z,20.82
2022-08-18T18:36:56.269Z,20.93
2022-08-18T18:39:35.944Z,20.85
2022-08-18T18:42:26.452Z,20.76
2022-08-18T18:45:05.814Z,20.83
2022-08-18T18:48:07.992Z,20.86
2022-08-18T18:51:10.504Z,20.74
2022-08-18T18:54:06.370Z,20.70
2022-08-18T18:56:41.605Z,20.70
2022-08-18T18:59:21.146Z,20.68
2022-08-18T19:02:32.932Z,20.63
2022-08-18T19:05:19.589Z,20.63
2022-08-18T19:07:58.186Z,20.54
2022-08-18T19:10:30.631Z,20.55
2022-08-18T19:13:06.042Z,20.53
2022-08-18T19:15:38.246Z,20.50
2022-08-18T19:18:28.045Z,20.50
2022-08-18T19:22:04.787Z,20.51
2022-08-18T19:24:26.751Z,20.43
2022-08-18T19:27:00.585Z,20.50
2022-08-18T19:29:38.716Z,20.44
2022-08-18T19:32:16.613Z,20.37
2022-08-18T19:34:52.877Z,20.40
2022-08-18T19:37:50.379Z,20.34
2022-08-18T19:40:28.821Z,20.35
2022-08-18T19:43:05.788Z,20.35
2022-08-18T19:46:02.621Z,20.32
2022-08-18T19:48:53.325Z,20.27
2022-08-18T19:51:40.144Z,20.31
2022-08-18T19:54:52.240Z,20.29
2022-08-18T19:57:19.224Z,20.32
2022-08-18T20:00:20.616Z,20.23
2022-08-18T20:03:05.993Z,20.28
2022-08-18T20:06:20.892Z,20.27
2022-08-18T20:09:09.884Z,20.30
2022-08-18T20:11:42.699Z,20.30
2022-08-18T20:14:18.830Z,20.28
2022-08-18T20:17:10.587Z,20.27
2022-08-18T20:19:44.584Z,20.24
2022-08-18T20:22:34.381Z,20.19
2022-08-18T20:25:41.833Z,20.03
2022-08-18T20:28:11.827Z,20.14
2022-08-18T20:30:38.600Z,20.14
2022-08-18T20:33:32.320Z,20.12
2022-08-18T20:36:24.472Z,20.11
2022-08-18T20:38:55.164Z,20.13
2022-08-18T20:41:35.621Z,20.11
2022-08-18T20:44:49.826Z,20.03
2022-08-18T20:47:16.734Z,20.07
2022-08-18T20:50:10.766Z,20.13
2022-08-18T20:52:43.360Z,20.09
2022-08-18T20:55:19.440Z,20.09
2022-08-18T20:57:47.003Z,20.09
2022-08-18T21:00:23.930Z,20.11
2022-08-18T21:02:59.901Z,20.06
2022-08-18T21:05:34.098Z,19.98
2022-08-18T21:08:13.686Z,19.98
2022-08-18T21:10:58.051Z,19.92
2022-08-18T21:13:56.891Z,19.83
2022-08-18T21:16:37.740Z,19.76
2022-08-18T21:19:23.755Z,19.71
2022-08-18T21:21:56.885Z,19.72
2022-08-18T21:24:36.966Z,19.64
2022-08-18T21:27:12.352Z,19.57
2022-08-18T21:29:47.512Z,19.52
2022-08-18T21:32:48.217Z,19.52
2022-08-18T21:35:34.289Z,19.50
2022-08-18T21:38:06.379Z,19.48
2022-08-18T21:40:47.701Z,19.39
2022-08-18T21:43:49.109Z,19.41
2022-08-18T21:46:29.679Z,19.40
2022-08-18T21:49:01.110Z,19.41
2022-08-18T21:51:33.336Z,19.33
2022-08-18T21:54:00.923Z,19.33
2022-08-18T21:56:32.306Z,19.32
2022-08-18T21:59:19.075Z,19.28
2022-08-18T22:01:55.466Z,19.19
2022-08-18T22:04:47.558Z,19.26
2022-08-18T22:07:34.251Z,19.32
2022-08-18T22:10:41.761Z,19.23
2022-08-18T22:13:41.746Z,19.19
2022-08-18T22:16:32.716Z,19.21
2022-08-18T22:19:28.860Z,19.17
2022-08-18T22:22:26.657Z,19.14
2022-08-18T22:24:59.579Z,19.09
2022-08-18T22:27:27.621Z,19.08
2022-08-18T22:30:04.189Z,19.09
2022-08-18T22:32:40.124Z,19.02
2022-08-18T22:35:08.885Z,19.06
2022-08-18T22:37:50.170Z,19.07
2022-08-18T22:40:21.653Z,19.11
2022-08-18T22:42:49.259Z,19.13
2022-08-18T22:45:16.504Z,19.17
2022-08-18T22:47:44.853Z,19.17
2022-08-18T22:50:14.082Z,19.15
2022-08-18T22:52:46.648Z,19.14
2022-08-18T22:55:21.827Z,19.11
2022-08-18T22:57:55.871Z,19.07
2022-08-18T23:00:25.481Z,19.09
2022-08-18T23:02:54.386Z,19.08
2022-08-18T23:05:21.901Z,19.07
2022-08-18T23:07:49.044Z,19.08
2022-08-18T23:10:16.890Z,19.10
2022-08-18T23:12:45.157Z,19.11
2022-08-18T23:15:13.240Z,19.11
2022-08-18T23:17:42.472Z,19.16
2022-08-18T23:20:17.891Z,19.15
2022-08-18T23:22:46.536Z,19.19
2022-08-18T23:25:13.884Z,19.19
2022-08-18T23:27:41.416Z,19.22
2022-08-18T23:30:09.527Z,19.20
2022-08-18T23:32:36.907Z,19.12
2022-08-18T23:35:04.869Z,19.11
2022-08-18T23:37:31.934Z,19.07
2022-08-18T23:39:59.449Z,19.02
2022-08-18T23:42:26.788Z,19.00
2022-08-18T23:44:53.607Z,18.91
2022-08-18T23:47:21.241Z,18.86
2022-08-18T23:49:48.853Z,18.81
2022-08-18T23:52:15.789Z,18.77
2022-08-18T23:54:42.680Z,18.68
2022-08-18T23:57:09.476Z,18.62
2022-08-18T23:59:36.728Z,18.60
